Time;durP1;ratioP1;P1;durP2;ratioP2;P2;SDS_P1;SDS_P2;PMS_P1;PMS_P2;Temp;Humidity;BMP_temperature;BMP_pressure;BME280_temperature;BME280_humidity;BME280_pressure;Samples;Min_cycle;Max_cycle;Signal;HPM_P1;HPM_P2
2021/04/12 00:01:45;;;;;;;2.58;1.92;;;;;;;;;;5099348;28;20211;-62
2021/04/12 00:04:15;;;;;;;4.65;2.85;;;;;;;;;;5101591;28;20208;-63
2021/04/12 00:06:45;;;;;;;4.18;2.40;;;;;;;;;;5099333;28;20204;-63
2021/04/12 00:09:16;;;;;;;2.38;2.17;;;;;;;;;;5096670;28;20220;-63
2021/04/12 00:11:44;;;;;;;4.80;2.25;;;;;;;;;;5095855;28;20246;-62
2021/04/12 00:14:14;;;;;;;2.50;2.30;;;;;;;;;;5095462;28;20203;-64
2021/04/12 00:16:44;;;;;;;5.47;3.25;;;;;;;;;;5096579;28;20208;-62
2021/04/12 00:19:15;;;;;;;3.00;2.20;;;;;;;;;;5096142;28;20192;-63
2021/04/12 00:21:43;;;;;;;6.55;2.65;;;;;;;;;;5096033;28;20531;-63
2021/04/12 00:24:12;;;;;;;3.13;2.42;;;;;;;;;;5098397;28;20204;-64
2021/04/12 00:26:43;;;;;;;3.70;2.45;;;;;;;;;;5098511;28;20207;-62
2021/04/12 00:29:11;;;;;;;3.65;2.10;;;;;;;;;;5098878;28;20644;-63
2021/04/12 00:31:41;;;;;;;3.35;2.33;;;;;;;;;;5097987;28;20260;-63
2021/04/12 00:34:11;;;;;;;3.20;1.80;;;;;;;;;;5098042;28;20737;-62
2021/04/12 00:36:40;;;;;;;3.70;2.20;;;;;;;;;;5098412;28;20565;-62
2021/04/12 00:39:09;;;;;;;3.88;2.30;;;;;;;;;;5098599;28;20616;-62
2021/04/12 00:41:43;;;;;;;2.63;2.08;;;;;;;;;;5099309;28;20203;-63
2021/04/12 00:44:16;;;;;;;4.95;1.80;;;;;;;;;;5098976;28;20189;-64
2021/04/12 00:46:54;;;;;;;4.18;1.83;;;;;;;;;;5098633;28;20188;-62
2021/04/12 00:49:39;;;;;;;4.88;1.95;;;;;;;;;;5099082;28;20231;-63
2021/04/12 00:52:18;;;;;;;5.95;2.03;;;;;;;;;;5098072;28;20632;-62
2021/04/12 00:54:59;;;;;;;2.53;1.70;;;;;;;;;;5099924;28;20239;-63
2021/04/12 00:57:36;;;;;;;2.67;1.80;;;;;;;;;;5101756;28;20192;-63
2021/04/12 01:00:07;;;;;;;5.72;2.10;;;;;;;;;;5101303;28;20222;-62
2021/04/12 01:02:39;;;;;;;3.38;1.90;;;;;;;;;;5101514;28;20188;-62
2021/04/12 01:05:08;;;;;;;2.63;1.80;;;;;;;;;;5106917;28;20224;-63
2021/04/12 01:07:50;;;;;;;3.97;1.90;;;;;;;;;;5109820;28;20219;-63
2021/04/12 01:10:38;;;;;;;4.68;2.20;;;;;;;;;;5112786;28;20184;-63
2021/04/12 01:13:10;;;;;;;2.72;1.70;;;;;;;;;;5108626;28;20200;-63
2021/04/12 01:15:52;;;;;;;2.60;1.60;;;;;;;;;;5112808;28;20277;-63
2021/04/12 01:18:40;;;;;;;3.42;1.98;;;;;;;;;;5099587;28;20577;-63
2021/04/12 01:21:17;;;;;;;1.77;1.67;;;;;;;;;;5094692;28;20200;-63
2021/04/12 01:24:01;;;;;;;2.35;2.15;;;;;;;;;;5099735;28;20180;-63
2021/04/12 01:26:51;;;;;;;3.05;1.80;;;;;;;;;;5099714;28;20220;-62
2021/04/12 01:29:36;;;;;;;3.10;2.63;;;;;;;;;;5083778;28;20219;-62
2021/04/12 01:32:11;;;;;;;4.30;2.65;;;;;;;;;;5099948;28;20207;-62
2021/04/12 01:34:52;;;;;;;4.05;3.08;;;;;;;;;;5099587;28;20216;-62
2021/04/12 01:37:37;;;;;;;3.45;2.22;;;;;;;;;;5101351;28;20305;-63
2021/04/12 01:40:19;;;;;;;4.07;3.30;;;;;;;;;;5100599;28;20211;-62
2021/04/12 01:42:53;;;;;;;4.78;3.28;;;;;;;;;;5099986;28;20185;-62
2021/04/12 01:45:27;;;;;;;4.88;3.83;;;;;;;;;;5099708;28;20239;-62
2021/04/12 01:48:02;;;;;;;5.82;3.30;;;;;;;;;;5100054;28;20656;-63
2021/04/12 01:50:35;;;;;;;6.97;2.80;;;;;;;;;;5099440;28;20184;-62
2021/04/12 01:53:20;;;;;;;3.67;3.20;;;;;;;;;;5097794;28;20189;-64
2021/04/12 01:55:59;;;;;;;3.42;2.92;;;;;;;;;;5096309;28;20600;-63
2021/04/12 01:58:47;;;;;;;5.95;3.03;;;;;;;;;;5096784;28;20188;-63
2021/04/12 02:01:25;;;;;;;4.75;2.75;;;;;;;;;;5091835;28;20219;-63
2021/04/12 02:04:00;;;;;;;3.30;3.00;;;;;;;;;;5096854;28;20191;-62
2021/04/12 02:06:42;;;;;;;3.80;2.40;;;;;;;;;;5096639;28;20231;-62
2021/04/12 02:09:22;;;;;;;4.35;2.55;;;;;;;;;;5093963;28;20235;-63
2021/04/12 02:11:54;;;;;;;3.35;2.80;;;;;;;;;;5095807;28;20632;-63
2021/04/12 02:14:33;;;;;;;4.00;2.90;;;;;;;;;;5095676;28;20196;-63
2021/04/12 02:17:03;;;;;;;4.57;2.90;;;;;;;;;;5095804;28;20188;-63
2021/04/12 02:19:40;;;;;;;3.58;3.03;;;;;;;;;;5095640;28;20305;-63
2021/04/12 02:22:19;;;;;;;3.28;2.97;;;;;;;;;;5095584;28;20180;-62
2021/04/12 02:24:51;;;;;;;6.82;3.10;;;;;;;;;;5095286;28;20223;-63
2021/04/12 02:27:20;;;;;;;3.97;2.60;;;;;;;;;;5095386;28;20185;-64
2021/04/12 02:29:54;;;;;;;2.85;2.40;;;;;;;;;;5095159;28;20224;-65
2021/04/12 02:32:38;;;;;;;3.10;2.80;;;;;;;;;;5095389;28;20266;-64
2021/04/12 02:35:13;;;;;;;4.65;2.78;;;;;;;;;;5095392;28;20243;-63
2021/04/12 02:37:45;;;;;;;5.25;2.80;;;;;;;;;;5094986;28;20191;-62
2021/04/12 02:40:22;;;;;;;4.32;2.50;;;;;;;;;;5095223;28;20218;-63
2021/04/12 02:42:52;;;;;;;3.83;2.70;;;;;;;;;;5095282;28;20187;-63
2021/04/12 02:45:28;;;;;;;3.85;2.75;;;;;;;;;;5095727;28;20234;-63
2021/04/12 02:47:58;;;;;;;4.15;2.80;;;;;;;;;;5094019;28;20196;-64
2021/04/12 02:50:41;;;;;;;4.45;3.47;;;;;;;;;;5095070;28;20184;-62
2021/04/12 02:53:19;;;;;;;3.63;3.00;;;;;;;;;;5094654;28;20599;-63
2021/04/12 02:56:03;;;;;;;6.50;3.55;;;;;;;;;;5094891;28;20237;-62
2021/04/12 02:58:40;;;;;;;5.13;3.40;;;;;;;;;;5094769;28;20253;-62
2021/04/12 03:01:11;;;;;;;5.82;3.22;;;;;;;;;;5096052;28;20249;-63
2021/04/12 03:03:48;;;;;;;3.78;3.08;;;;;;;;;;5095763;28;20317;-63
2021/04/12 03:06:39;;;;;;;11.00;3.70;;;;;;;;;;5095081;28;20224;-62
2021/04/12 03:09:19;;;;;;;5.97;3.33;;;;;;;;;;5094915;28;20204;-62
2021/04/12 03:12:05;;;;;;;5.38;3.67;;;;;;;;;;5094925;28;20616;-63
2021/04/12 03:14:47;;;;;;;5.78;3.63;;;;;;;;;;5096354;28;20219;-62
2021/04/12 03:17:19;;;;;;;4.65;3.22;;;;;;;;;;5096419;28;20194;-64
2021/04/12 03:20:03;;;;;;;5.47;3.33;;;;;;;;;;5096757;28;20280;-62
2021/04/12 03:22:51;;;;;;;4.80;3.72;;;;;;;;;;5096282;28;20198;-63
2021/04/12 03:25:33;;;;;;;5.15;3.45;;;;;;;;;;5070889;28;20220;-62
2021/04/12 03:28:03;;;;;;;4.53;4.13;;;;;;;;;;5093277;28;20199;-63
2021/04/12 03:30:43;;;;;;;4.28;3.75;;;;;;;;;;5095536;28;20204;-62
2021/04/12 03:33:15;;;;;;;4.07;3.60;;;;;;;;;;5095355;28;20203;-63
2021/04/12 03:35:51;;;;;;;4.70;3.55;;;;;;;;;;5095794;28;20227;-62
2021/04/12 03:38:37;;;;;;;5.20;3.92;;;;;;;;;;5095336;28;20189;-63
2021/04/12 03:41:25;;;;;;;4.15;3.75;;;;;;;;;;5094635;28;20196;-62
2021/04/12 03:44:03;;;;;;;5.55;4.20;;;;;;;;;;5094237;28;20198;-63
2021/04/12 03:46:38;;;;;;;7.45;4.40;;;;;;;;;;5093986;28;20240;-62
2021/04/12 03:49:19;;;;;;;5.28;4.25;;;;;;;;;;5094154;28;20287;-63
2021/04/12 03:52:01;;;;;;;5.90;4.05;;;;;;;;;;5093689;28;20187;-63
2021/04/12 03:54:41;;;;;;;5.53;4.00;;;;;;;;;;5094117;28;20184;-63
2021/04/12 03:57:24;;;;;;;6.38;3.70;;;;;;;;;;5093891;28;20189;-63
2021/04/12 03:59:59;;;;;;;15.15;5.07;;;;;;;;;;5093808;28;20184;-63
2021/04/12 04:02:33;;;;;;;6.05;3.88;;;;;;;;;;5094668;28;20237;-62
2021/04/12 04:08:25;;;;;;;5.10;3.33;;;;;;;;;;5125355;27;910294;-63
2021/04/12 04:11:02;;;;;;;8.05;4.20;;;;;;;;;;5073688;28;20203;-63
2021/04/12 04:13:36;;;;;;;8.40;3.70;;;;;;;;;;5133652;28;20190;-62
2021/04/12 04:16:12;;;;;;;4.90;3.95;;;;;;;;;;5116540;28;20616;-64
2021/04/12 04:18:41;;;;;;;7.22;4.47;;;;;;;;;;5111716;28;20219;-63
2021/04/12 04:21:35;;;;;;;7.70;3.72;;;;;;;;;;5110981;28;20199;-64
2021/04/12 04:24:07;;;;;;;6.22;3.65;;;;;;;;;;5111707;28;20202;-61
2021/04/12 04:26:43;;;;;;;7.00;4.07;;;;;;;;;;5111741;28;20227;-62
2021/04/12 04:29:27;;;;;;;8.77;4.50;;;;;;;;;;5111993;28;20187;-64
2021/04/12 04:32:02;;;;;;;5.32;4.00;;;;;;;;;;5111755;28;20192;-64
2021/04/12 04:34:32;;;;;;;8.30;4.10;;;;;;;;;;5113941;28;20284;-63
2021/04/12 04:37:22;;;;;;;6.00;3.85;;;;;;;;;;5114403;28;20299;-63
2021/04/12 04:39:56;;;;;;;4.20;3.78;;;;;;;;;;5109878;28;20253;-63
2021/04/12 04:42:41;;;;;;;5.93;4.80;;;;;;;;;;5116391;28;20188;-63
2021/04/12 04:45:13;;;;;;;6.07;4.45;;;;;;;;;;5117956;28;20230;-64
2021/04/12 04:47:55;;;;;;;5.53;4.10;;;;;;;;;;5117036;28;20208;-63
2021/04/12 04:50:30;;;;;;;10.77;5.10;;;;;;;;;;5113517;28;20198;-64
2021/04/12 04:53:04;;;;;;;8.88;4.32;;;;;;;;;;5113486;28;20179;-63
2021/04/12 04:55:37;;;;;;;4.13;3.75;;;;;;;;;;5111728;28;20224;-63
2021/04/12 04:58:22;;;;;;;6.00;4.32;;;;;;;;;;5111849;28;20188;-63
2021/04/12 05:00:57;;;;;;;5.63;4.78;;;;;;;;;;5098470;28;20211;-63
2021/04/12 05:03:42;;;;;;;6.25;4.30;;;;;;;;;;5110908;28;20184;-63
2021/04/12 05:06:15;;;;;;;5.55;3.95;;;;;;;;;;5110040;28;20227;-62
2021/04/12 05:09:00;;;;;;;10.30;3.75;;;;;;;;;;5111372;28;20187;-61
2021/04/12 05:11:44;;;;;;;9.00;4.50;;;;;;;;;;5111390;28;20199;-63
2021/04/12 05:14:29;;;;;;;5.32;3.85;;;;;;;;;;5110795;28;20241;-64
2021/04/12 05:17:08;;;;;;;6.40;3.78;;;;;;;;;;5110276;28;20192;-63
2021/04/12 05:19:45;;;;;;;9.00;3.83;;;;;;;;;;5096253;28;20631;-63
2021/04/12 05:22:33;;;;;;;4.00;3.40;;;;;;;;;;5096098;28;20206;-64
2021/04/12 05:25:04;;;;;;;3.60;3.15;;;;;;;;;;5063557;28;20276;-61
2021/04/12 05:27:49;;;;;;;7.10;4.05;;;;;;;;;;5098853;28;20201;-62
2021/04/12 05:30:30;;;;;;;7.18;3.47;;;;;;;;;;5096725;28;20188;-64
2021/04/12 05:33:12;;;;;;;6.97;5.05;;;;;;;;;;5096063;28;20206;-64
2021/04/12 05:35:45;;;;;;;8.43;4.57;;;;;;;;;;5096465;28;20220;-64
2021/04/12 05:38:27;;;;;;;9.43;4.50;;;;;;;;;;5096241;28;20184;-64
2021/04/12 05:41:00;;;;;;;4.35;3.50;;;;;;;;;;5095925;28;20633;-62
2021/04/12 05:43:46;;;;;;;7.90;3.70;;;;;;;;;;5095779;28;20184;-62
2021/04/12 05:46:23;;;;;;;5.15;3.65;;;;;;;;;;5095798;28;20645;-63
2021/04/12 05:49:00;;;;;;;4.97;3.63;;;;;;;;;;5096009;28;20184;-63
2021/04/12 05:51:36;;;;;;;7.95;3.65;;;;;;;;;;5095583;28;20185;-63
2021/04/12 05:54:22;;;;;;;4.78;3.75;;;;;;;;;;5096140;28;20181;-63
2021/04/12 05:57:08;;;;;;;12.68;3.35;;;;;;;;;;5095970;28;20550;-64
2021/04/12 05:59:41;;;;;;;4.07;3.20;;;;;;;;;;5097057;28;20219;-63
2021/04/12 06:02:19;;;;;;;7.63;3.75;;;;;;;;;;5096522;28;20184;-62
2021/04/12 06:04:57;;;;;;;5.45;3.70;;;;;;;;;;5096612;28;20219;-63
2021/04/12 06:07:42;;;;;;;5.95;3.42;;;;;;;;;;5096109;28;20219;-65
2021/04/12 06:10:17;;;;;;;5.00;3.80;;;;;;;;;;5096373;28;20250;-63
2021/04/12 06:12:52;;;;;;;5.10;4.10;;;;;;;;;;5096298;28;20191;-62
2021/04/12 06:15:43;;;;;;;6.85;2.88;;;;;;;;;;5096278;28;20223;-63
2021/04/12 06:18:24;;;;;;;7.07;2.95;;;;;;;;;;5095626;28;20210;-63
2021/04/12 06:21:05;;;;;;;5.78;3.88;;;;;;;;;;5095258;28;20180;-64
2021/04/12 06:23:38;;;;;;;5.88;3.72;;;;;;;;;;5095267;28;20191;-63
2021/04/12 06:26:26;;;;;;;4.38;3.30;;;;;;;;;;5095480;28;20601;-63
2021/04/12 06:28:56;;;;;;;3.92;3.00;;;;;;;;;;5061267;28;20211;-63
2021/04/12 06:31:38;;;;;;;7.65;2.40;;;;;;;;;;5095258;28;20680;-64
2021/04/12 06:34:11;;;;;;;4.25;3.25;;;;;;;;;;5095446;28;20188;-62
2021/04/12 06:36:49;;;;;;;5.40;3.03;;;;;;;;;;5095932;28;20557;-65
2021/04/12 06:39:23;;;;;;;4.20;3.65;;;;;;;;;;5108482;28;20191;-64
2021/04/12 06:42:09;;;;;;;7.68;4.05;;;;;;;;;;5096154;28;20184;-62
2021/04/12 06:44:41;;;;;;;6.53;3.83;;;;;;;;;;5094746;28;20711;-64
2021/04/12 06:47:14;;;;;;;5.63;3.03;;;;;;;;;;5094946;28;20211;-63
2021/04/12 06:50:05;;;;;;;5.80;3.22;;;;;;;;;;5094868;28;20655;-62
2021/04/12 06:52:47;;;;;;;5.75;2.90;;;;;;;;;;5074550;28;20573;-63
2021/04/12 06:55:19;;;;;;;9.30;4.47;;;;;;;;;;5094419;28;20220;-64
2021/04/12 06:58:07;;;;;;;5.95;3.40;;;;;;;;;;5094424;28;20687;-64
2021/04/12 07:01:00;;;;;;;6.75;3.55;;;;;;;;;;5095614;28;20195;-62
2021/04/12 07:03:55;;;;;;;4.25;2.90;;;;;;;;;;5094600;28;20238;-64
2021/04/12 07:06:30;;;;;;;3.25;2.78;;;;;;;;;;5093985;28;21242;-63
2021/04/12 07:09:14;;;;;;;4.00;3.70;;;;;;;;;;5094455;28;20230;-64
2021/04/12 07:12:01;;;;;;;3.75;2.85;;;;;;;;;;5094749;28;20189;-64
2021/04/12 07:14:46;;;;;;;5.18;2.70;;;;;;;;;;5095270;28;20203;-64
2021/04/12 07:17:23;;;;;;;4.32;2.90;;;;;;;;;;5095048;28;20191;-64
2021/04/12 07:20:08;;;;;;;6.35;3.00;;;;;;;;;;5095006;28;20184;-63
2021/04/12 07:22:53;;;;;;;4.40;2.33;;;;;;;;;;5095533;28;20207;-64
2021/04/12 07:25:49;;;;;;;6.43;2.85;;;;;;;;;;5094594;28;20269;-63
2021/04/12 07:28:27;;;;;;;4.20;2.65;;;;;;;;;;5095281;28;20194;-63
2021/04/12 07:31:16;;;;;;;3.05;2.33;;;;;;;;;;5094271;28;20184;-63
2021/04/12 07:33:53;;;;;;;5.25;2.58;;;;;;;;;;5094584;28;20184;-64
2021/04/12 07:36:35;;;;;;;8.05;2.95;;;;;;;;;;5094415;28;20269;-63
2021/04/12 07:39:20;;;;;;;3.25;2.50;;;;;;;;;;5049902;28;20204;-64
2021/04/12 07:42:02;;;;;;;6.10;2.90;;;;;;;;;;5093660;28;20583;-64
2021/04/12 07:44:47;;;;;;;2.63;2.40;;;;;;;;;;5094047;28;20185;-63
2021/04/12 07:47:32;;;;;;;5.03;2.65;;;;;;;;;;5093437;28;20224;-64
2021/04/12 07:50:26;;;;;;;8.52;2.83;;;;;;;;;;5094356;28;20203;-64
2021/04/12 07:53:24;;;;;;;6.65;3.20;;;;;;;;;;5094382;28;20184;-63
2021/04/12 07:56:10;;;;;;;5.38;3.17;;;;;;;;;;5093918;28;20594;-64
2021/04/12 07:58:51;;;;;;;4.30;3.10;;;;;;;;;;5093963;28;20230;-63
2021/04/12 08:01:37;;;;;;;8.50;3.28;;;;;;;;;;5093429;28;20233;-64
2021/04/12 08:04:21;;;;;;;6.78;3.45;;;;;;;;;;5093360;28;20613;-62
2021/04/12 08:07:12;;;;;;;4.97;3.13;;;;;;;;;;5053055;28;20216;-64
2021/04/12 08:09:48;;;;;;;7.97;3.03;;;;;;;;;;5093980;28;20196;-64
2021/04/12 08:12:32;;;;;;;3.42;2.17;;;;;;;;;;5093819;28;20188;-62
2021/04/12 08:15:18;;;;;;;3.78;2.55;;;;;;;;;;5092488;28;20219;-62
2021/04/12 08:18:03;;;;;;;4.72;2.90;;;;;;;;;;5093341;28;20200;-64
2021/04/12 08:20:48;;;;;;;5.22;2.28;;;;;;;;;;5093297;28;20211;-63
2021/04/12 08:23:39;;;;;;;4.63;2.53;;;;;;;;;;5093476;28;20196;-63
2021/04/12 08:26:34;;;;;;;2.45;2.25;;;;;;;;;;5093617;28;20221;-64
2021/04/12 08:29:17;;;;;;;5.05;2.10;;;;;;;;;;5093701;28;20208;-63
2021/04/12 08:32:02;;;;;;;3.35;2.08;;;;;;;;;;5093330;28;20185;-64
2021/04/12 08:34:56;;;;;;;9.52;4.72;;;;;;;;;;5093942;28;20616;-64
2021/04/12 08:37:37;;;;;;;3.53;2.35;;;;;;;;;;5093904;28;20234;-63
2021/04/12 08:40:22;;;;;;;3.65;2.25;;;;;;;;;;5090588;28;20219;-64
2021/04/12 08:43:09;;;;;;;8.15;2.35;;;;;;;;;;5093605;28;20706;-64
2021/04/12 08:45:54;;;;;;;5.20;2.17;;;;;;;;;;5095688;28;20221;-63
2021/04/12 08:48:23;;;;;;;3.40;1.35;;;;;;;;;;5068776;28;20204;-63
2021/04/12 08:51:09;;;;;;;4.13;1.80;;;;;;;;;;5096698;28;20668;-62
2021/04/12 08:53:52;;;;;;;1.75;1.60;;;;;;;;;;5095519;28;20273;-62
2021/04/12 08:56:28;;;;;;;5.53;2.00;;;;;;;;;;5096932;28;20216;-63
2021/04/12 08:59:05;;;;;;;5.07;1.90;;;;;;;;;;5097458;28;20187;-64
2021/04/12 09:01:47;;;;;;;4.05;1.65;;;;;;;;;;5104505;28;20208;-65
2021/04/12 09:04:33;;;;;;;2.13;1.38;;;;;;;;;;5112530;28;20188;-64
2021/04/12 09:07:18;;;;;;;3.65;1.40;;;;;;;;;;5111520;28;20220;-63
2021/04/12 09:09:58;;;;;;;2.33;1.60;;;;;;;;;;5104111;28;20200;-63
2021/04/12 09:12:33;;;;;;;3.50;1.80;;;;;;;;;;5103699;28;20197;-63
2021/04/12 09:15:11;;;;;;;1.85;1.10;;;;;;;;;;5098676;28;20227;-64
2021/04/12 09:17:50;;;;;;;2.58;1.55;;;;;;;;;;5096845;28;20176;-63
2021/04/12 09:20:24;;;;;;;2.80;1.27;;;;;;;;;;5096551;28;20191;-63
2021/04/12 09:23:09;;;;;;;4.03;1.25;;;;;;;;;;5096705;28;20188;-64
2021/04/12 09:26:00;;;;;;;3.22;1.38;;;;;;;;;;5096698;28;20212;-68
2021/04/12 09:28:44;;;;;;;3.97;1.30;;;;;;;;;;5096563;28;20185;-64
2021/04/12 09:31:38;;;;;;;1.90;1.40;;;;;;;;;;5096432;28;20184;-64
2021/04/12 09:34:21;;;;;;;5.47;1.73;;;;;;;;;;5048675;28;20200;-63
2021/04/12 09:36:58;;;;;;;3.25;1.30;;;;;;;;;;5096201;28;20185;-62
2021/04/12 09:39:38;;;;;;;5.30;1.73;;;;;;;;;;5096506;28;20625;-64
2021/04/12 09:42:24;;;;;;;5.85;1.75;;;;;;;;;;5096579;28;20188;-64
2021/04/12 09:45:17;;;;;;;1.50;1.13;;;;;;;;;;5096158;28;20646;-63
2021/04/12 09:48:02;;;;;;;2.60;1.15;;;;;;;;;;5095868;28;20200;-64
2021/04/12 09:50:51;;;;;;;3.08;1.25;;;;;;;;;;5096884;28;20207;-63
2021/04/12 09:53:36;;;;;;;3.63;1.40;;;;;;;;;;5097668;28;20237;-64
2021/04/12 09:56:11;;;;;;;5.70;1.40;;;;;;;;;;5059782;28;20246;-64
2021/04/12 09:59:05;;;;;;;5.55;1.30;;;;;;;;;;5098407;28;20191;-64
2021/04/12 10:01:45;;;;;;;5.05;1.75;;;;;;;;;;5097590;28;20199;-64
2021/04/12 10:04:32;;;;;;;5.90;1.60;;;;;;;;;;5098343;28;20192;-64
2021/04/12 10:07:17;;;;;;;3.67;1.77;;;;;;;;;;5097554;28;20250;-64
2021/04/12 10:09:58;;;;;;;4.85;1.50;;;;;;;;;;5097908;28;20279;-66
2021/04/12 10:12:30;;;;;;;3.15;1.70;;;;;;;;;;5097050;28;20656;-63
2021/04/12 10:15:00;;;;;;;3.15;1.40;;;;;;;;;;5096571;28;20237;-64
2021/04/12 10:17:31;;;;;;;2.67;1.50;;;;;;;;;;5095831;28;20197;-64
2021/04/12 10:20:01;;;;;;;3.75;1.30;;;;;;;;;;5095375;28;20593;-63
2021/04/12 10:22:34;;;;;;;2.90;1.45;;;;;;;;;;5096510;28;20281;-65
2021/04/12 10:25:04;;;;;;;3.70;1.70;;;;;;;;;;5095166;28;20656;-64
2021/04/12 10:27:36;;;;;;;4.15;1.67;;;;;;;;;;5094929;28;20227;-63
2021/04/12 10:30:09;;;;;;;2.50;1.27;;;;;;;;;;5095028;28;20189;-63
2021/04/12 10:32:43;;;;;;;2.47;1.40;;;;;;;;;;5095499;28;20613;-64
2021/04/12 10:35:12;;;;;;;1.83;1.02;;;;;;;;;;5095030;28;20272;-64
2021/04/12 10:37:43;;;;;;;4.45;1.70;;;;;;;;;;5094775;28;20200;-64
2021/04/12 10:40:14;;;;;;;3.95;1.50;;;;;;;;;;5095081;28;20188;-63
2021/04/12 10:42:47;;;;;;;5.38;1.20;;;;;;;;;;5094249;28;20185;-64
2021/04/12 10:45:17;;;;;;;3.53;1.17;;;;;;;;;;5094866;28;20224;-64
2021/04/12 10:47:57;;;;;;;2.53;1.25;;;;;;;;;;5094416;28;20265;-64
2021/04/12 10:50:29;;;;;;;2.67;0.98;;;;;;;;;;5102831;28;20597;-65
2021/04/12 10:53:14;;;;;;;3.17;1.48;;;;;;;;;;5104472;28;20215;-65
2021/04/12 10:55:43;;;;;;;2.88;1.42;;;;;;;;;;5095013;28;20720;-64
2021/04/12 10:58:15;;;;;;;6.40;1.55;;;;;;;;;;5095824;28;20192;-65
2021/04/12 11:00:46;;;;;;;2.33;1.45;;;;;;;;;;5094523;28;20554;-63
2021/04/12 11:03:17;;;;;;;1.95;1.25;;;;;;;;;;5094155;28;20686;-65
2021/04/12 11:05:46;;;;;;;2.75;1.20;;;;;;;;;;5094548;28;20220;-64
2021/04/12 11:08:20;;;;;;;2.38;1.27;;;;;;;;;;5093972;28;20215;-64
2021/04/12 11:10:58;;;;;;;1.25;0.90;;;;;;;;;;5094442;28;20192;-64
2021/04/12 11:13:29;;;;;;;3.28;1.00;;;;;;;;;;5094136;28;20184;-64
2021/04/12 11:16:06;;;;;;;2.17;0.98;;;;;;;;;;5096482;28;20231;-64
2021/04/12 11:18:35;;;;;;;3.22;1.00;;;;;;;;;;5096648;28;20184;-66
2021/04/12 11:21:08;;;;;;;7.43;1.55;;;;;;;;;;5094147;28;20684;-64
2021/04/12 11:23:37;;;;;;;4.10;1.48;;;;;;;;;;5094886;28;20184;-64
2021/04/12 11:26:07;;;;;;;2.42;1.23;;;;;;;;;;5094918;28;20289;-64
2021/04/12 11:28:37;;;;;;;2.88;0.90;;;;;;;;;;5094748;28;20224;-64
2021/04/12 11:31:14;;;;;;;3.65;1.00;;;;;;;;;;5094128;28;20245;-63
2021/04/12 11:33:51;;;;;;;2.67;1.55;;;;;;;;;;5095006;28;20192;-64
2021/04/12 11:36:21;;;;;;;2.25;1.38;;;;;;;;;;5094158;28;20231;-63
2021/04/12 11:38:52;;;;;;;3.78;1.30;;;;;;;;;;5094659;28;20317;-63
2021/04/12 11:41:21;;;;;;;1.02;0.73;;;;;;;;;;5094921;28;20188;-63
2021/04/12 11:43:49;;;;;;;1.50;1.13;;;;;;;;;;5094300;28;20207;-64
2021/04/12 11:46:25;;;;;;;1.73;1.38;;;;;;;;;;5094124;28;20731;-64
2021/04/12 11:48:54;;;;;;;1.70;0.90;;;;;;;;;;5094660;28;20188;-64
2021/04/12 11:51:24;;;;;;;2.50;1.08;;;;;;;;;;5094119;28;20323;-64
2021/04/12 11:53:54;;;;;;;2.78;1.40;;;;;;;;;;5093612;28;20690;-62
2021/04/12 11:56:39;;;;;;;2.35;1.17;;;;;;;;;;5093866;28;20259;-63
2021/04/12 11:59:09;;;;;;;4.47;1.30;;;;;;;;;;5080784;28;20199;-63
2021/04/12 12:01:42;;;;;;;1.70;1.00;;;;;;;;;;5094069;28;20426;-64
2021/04/12 12:04:14;;;;;;;3.10;1.30;;;;;;;;;;5094072;28;20203;-64
2021/04/12 12:06:44;;;;;;;2.17;1.23;;;;;;;;;;5093392;28;20478;-64
2021/04/12 12:09:16;;;;;;;1.63;1.30;;;;;;;;;;5093176;28;20208;-64
2021/04/12 12:11:46;;;;;;;2.17;1.40;;;;;;;;;;5093024;28;20632;-64
2021/04/12 12:14:19;;;;;;;2.50;1.23;;;;;;;;;;5093085;28;20442;-64
2021/04/12 12:16:45;;;;;;;1.60;0.90;;;;;;;;;;5093179;28;20188;-63
2021/04/12 12:19:20;;;;;;;3.65;1.20;;;;;;;;;;5093233;28;20200;-62
2021/04/12 12:21:49;;;;;;;1.60;0.90;;;;;;;;;;5093896;28;20184;-64
2021/04/12 12:24:19;;;;;;;1.45;1.00;;;;;;;;;;5094506;28;20434;-63
2021/04/12 12:26:49;;;;;;;1.77;1.00;;;;;;;;;;5097900;28;20226;-64
2021/04/12 12:29:18;;;;;;;1.27;1.00;;;;;;;;;;5098963;28;20509;-64
2021/04/12 12:31:59;;;;;;;2.03;1.00;;;;;;;;;;5100021;28;20450;-64
2021/04/12 12:34:32;;;;;;;4.73;1.67;;;;;;;;;;5081577;28;20442;-65
2021/04/12 12:37:04;;;;;;;2.73;1.13;;;;;;;;;;5098155;28;20418;-63
2021/04/12 12:39:35;;;;;;;2.33;1.25;;;;;;;;;;5098067;28;20427;-64
2021/04/12 12:42:05;;;;;;;3.08;1.27;;;;;;;;;;5098756;28;20207;-63
2021/04/12 12:44:32;;;;;;;2.42;1.10;;;;;;;;;;5097384;28;20224;-62
2021/04/12 12:47:06;;;;;;;1.52;1.27;;;;;;;;;;5098293;28;20574;-63
2021/04/12 12:49:36;;;;;;;1.67;0.60;;;;;;;;;;5098877;28;20540;-63
2021/04/12 12:52:05;;;;;;;1.50;1.00;;;;;;;;;;5097164;28;20210;-61
2021/04/12 12:54:34;;;;;;;1.08;0.80;;;;;;;;;;5097373;28;20220;-63
2021/04/12 12:57:03;;;;;;;2.05;1.17;;;;;;;;;;5097189;28;20205;-63
2021/04/12 12:59:34;;;;;;;2.00;1.20;;;;;;;;;;5097111;28;20204;-62
2021/04/12 13:02:11;;;;;;;5.28;1.40;;;;;;;;;;5096795;28;20207;-63
2021/04/12 13:04:39;;;;;;;2.30;1.15;;;;;;;;;;5096880;28;20220;-63
2021/04/12 13:07:11;;;;;;;2.38;1.05;;;;;;;;;;5096679;28;20227;-63
2021/04/12 13:09:40;;;;;;;2.65;1.10;;;;;;;;;;5097205;28;20192;-63
2021/04/12 13:12:11;;;;;;;2.08;0.90;;;;;;;;;;5098386;28;20200;-63
2021/04/12 13:14:40;;;;;;;1.75;0.80;;;;;;;;;;5109232;28;20204;-63
2021/04/12 13:17:17;;;;;;;1.33;1.23;;;;;;;;;;5105691;28;20672;-64
2021/04/12 13:19:46;;;;;;;2.78;1.13;;;;;;;;;;5097639;28;20204;-63
2021/04/12 13:22:19;;;;;;;1.25;0.90;;;;;;;;;;5096677;28;20551;-63
2021/04/12 13:24:45;;;;;;;1.13;1.00;;;;;;;;;;5096952;28;20216;-64
2021/04/12 13:27:14;;;;;;;2.17;1.50;;;;;;;;;;5097450;28;20224;-63
2021/04/12 13:29:44;;;;;;;1.48;1.20;;;;;;;;;;5097346;28;20204;-64
2021/04/12 13:32:13;;;;;;;1.20;1.10;;;;;;;;;;5097930;28;20238;-64
2021/04/12 13:34:45;;;;;;;1.25;1.00;;;;;;;;;;5098780;28;20724;-64
2021/04/12 13:37:14;;;;;;;1.88;0.98;;;;;;;;;;5097079;28;20208;-61
2021/04/12 13:39:42;;;;;;;1.50;1.00;;;;;;;;;;5096242;28;20212;-64
2021/04/12 13:42:11;;;;;;;3.65;1.55;;;;;;;;;;5096131;28;20208;-63
2021/04/12 13:44:44;;;;;;;1.33;1.23;;;;;;;;;;5095871;28;20227;-62
2021/04/12 13:47:16;;;;;;;0.98;0.80;;;;;;;;;;5096256;28;20208;-63
2021/04/12 13:49:45;;;;;;;2.20;1.50;;;;;;;;;;5095958;28;20280;-64
2021/04/12 13:52:14;;;;;;;1.52;1.20;;;;;;;;;;5096353;28;20222;-65
2021/04/12 13:54:43;;;;;;;3.58;1.70;;;;;;;;;;5095872;28;20224;-63
2021/04/12 13:57:15;;;;;;;0.80;0.80;;;;;;;;;;5095975;28;20250;-63
2021/04/12 13:59:46;;;;;;;1.90;1.30;;;;;;;;;;5095868;28;20218;-62
2021/04/12 14:02:16;;;;;;;1.70;0.98;;;;;;;;;;5095591;28;20188;-64
2021/04/12 14:04:44;;;;;;;1.17;1.08;;;;;;;;;;5096441;28;20254;-64
2021/04/12 14:07:12;;;;;;;2.70;1.10;;;;;;;;;;5095384;28;20627;-65
2021/04/12 14:09:40;;;;;;;1.25;0.75;;;;;;;;;;5095405;28;20204;-64
2021/04/12 14:12:09;;;;;;;1.15;0.80;;;;;;;;;;5095587;28;20207;-63
2021/04/12 14:14:44;;;;;;;4.55;0.98;;;;;;;;;;5095803;28;20314;-63
2021/04/12 14:17:11;;;;;;;1.77;1.42;;;;;;;;;;5095411;28;20577;-63
2021/04/12 14:19:41;;;;;;;1.75;0.95;;;;;;;;;;5095326;28;20200;-63
2021/04/12 14:22:11;;;;;;;2.28;1.27;;;;;;;;;;5095480;28;20200;-63
2021/04/12 14:24:42;;;;;;;1.58;1.20;;;;;;;;;;5094901;28;20727;-63
2021/04/12 14:27:10;;;;;;;2.47;1.10;;;;;;;;;;5095980;28;20745;-64
2021/04/12 14:29:39;;;;;;;1.77;1.40;;;;;;;;;;5096148;28;20350;-63
2021/04/12 14:32:09;;;;;;;2.10;1.45;;;;;;;;;;5095346;28;20672;-63
2021/04/12 14:34:40;;;;;;;2.08;1.55;;;;;;;;;;5095599;28;20220;-64
2021/04/12 14:37:08;;;;;;;1.90;1.80;;;;;;;;;;5095255;28;20191;-63
2021/04/12 14:39:36;;;;;;;2.20;2.00;;;;;;;;;;5097175;28;20729;-64
2021/04/12 14:42:05;;;;;;;2.70;2.50;;;;;;;;;;5108262;28;20769;-63
2021/04/12 14:44:34;;;;;;;2.35;2.15;;;;;;;;;;5095722;28;20301;-64
2021/04/12 14:47:02;;;;;;;2.58;2.38;;;;;;;;;;5095288;28;20223;-63
2021/04/12 14:49:34;;;;;;;6.00;2.55;;;;;;;;;;5096446;28;20199;-62
2021/04/12 14:52:03;;;;;;;3.85;2.20;;;;;;;;;;5094682;28;20185;-62
2021/04/12 14:54:32;;;;;;;5.78;2.35;;;;;;;;;;5097113;28;20224;-62
2021/04/12 14:57:12;;;;;;;2.50;1.88;;;;;;;;;;5095537;28;20200;-62
2021/04/12 14:59:40;;;;;;;4.88;2.40;;;;;;;;;;5094776;28;20188;-64
2021/04/12 15:02:19;;;;;;;3.58;2.15;;;;;;;;;;5095264;28;20211;-63
2021/04/12 15:04:54;;;;;;;3.00;2.60;;;;;;;;;;5094750;28;20730;-63
2021/04/12 15:07:21;;;;;;;3.17;2.13;;;;;;;;;;5102720;28;20219;-62
2021/04/12 15:09:51;;;;;;;3.45;2.55;;;;;;;;;;5101600;28;20196;-62
2021/04/12 15:12:20;;;;;;;2.90;2.20;;;;;;;;;;5098763;28;20268;-63
2021/04/12 15:14:48;;;;;;;2.65;2.20;;;;;;;;;;5097587;28;20228;-62
2021/04/12 15:17:19;;;;;;;6.47;2.10;;;;;;;;;;5097338;28;20196;-63
2021/04/12 15:19:47;;;;;;;2.95;2.25;;;;;;;;;;5097452;28;20192;-63
2021/04/12 15:22:17;;;;;;;3.05;2.13;;;;;;;;;;5098792;28;20717;-62
2021/04/12 15:24:45;;;;;;;6.15;4.60;;;;;;;;;;5098649;28;20231;-63
2021/04/12 15:27:17;;;;;;;4.43;2.22;;;;;;;;;;5098767;28;20228;-62
2021/04/12 15:29:46;;;;;;;2.85;2.25;;;;;;;;;;5098006;28;20302;-62
2021/04/12 15:32:15;;;;;;;1.88;1.67;;;;;;;;;;5099732;28;20204;-63
2021/04/12 15:34:43;;;;;;;2.60;1.90;;;;;;;;;;5100017;28;20293;-64
2021/04/12 15:37:21;;;;;;;2.45;2.25;;;;;;;;;;5099395;28;20200;-64
2021/04/12 15:39:50;;;;;;;4.55;2.33;;;;;;;;;;5099665;28;20184;-62
2021/04/12 15:42:18;;;;;;;2.65;1.80;;;;;;;;;;5102978;28;20200;-63